createdAt,value
2017-11-14T00:00:55.986Z,0
2017-11-14T00:01:55.961Z,0
2017-11-14T00:02:55.630Z,0
2017-11-14T00:03:55.610Z,0
2017-11-14T00:04:55.922Z,0
2017-11-14T00:05:55.914Z,0
2017-11-14T00:06:55.903Z,0
2017-11-14T00:07:55.562Z,0
2017-11-14T00:08:55.882Z,0
2017-11-14T00:09:55.857Z,0
2017-11-14T00:10:55.844Z,0
2017-11-14T00:11:55.511Z,0
2017-11-14T00:12:55.808Z,0
2017-11-14T00:13:55.798Z,0
2017-11-14T00:14:55.460Z,0
2017-11-14T00:15:55.777Z,0
2017-11-14T00:16:55.758Z,0
2017-11-14T00:17:55.417Z,0
2017-11-14T00:18:55.730Z,0
2017-11-14T00:19:55.712Z,0
2017-11-14T00:20:55.710Z,0
2017-11-14T00:21:55.688Z,0
2017-11-14T00:22:55.343Z,0
2017-11-14T00:23:55.329Z,0
2017-11-14T00:24:55.638Z,0
2017-11-14T00:25:55.657Z,0
2017-11-14T00:26:55.612Z,0
2017-11-14T00:27:55.859Z,0
2017-11-14T00:28:55.577Z,0
2017-11-14T00:29:55.563Z,0
2017-11-14T00:30:55.564Z,0
2017-11-14T00:31:55.211Z,0
2017-11-14T00:32:55.227Z,0
2017-11-14T00:33:55.519Z,0
2017-11-14T00:34:54.842Z,0
2017-11-14T00:35:55.488Z,0
2017-11-14T00:36:55.153Z,0
2017-11-14T00:37:55.137Z,0
2017-11-14T00:38:55.449Z,0
2017-11-14T00:39:55.416Z,0
2017-11-14T00:40:55.412Z,0
2017-11-14T00:41:55.412Z,0
2017-11-14T00:42:55.383Z,0
2017-11-14T00:43:55.362Z,0
2017-11-14T00:44:55.354Z,0
2017-11-14T00:45:55.347Z,0
2017-11-14T00:46:55.320Z,0
2017-11-14T00:47:55.311Z,0
2017-11-14T00:48:55.287Z,0
2017-11-14T00:49:55.279Z,0
2017-11-14T00:50:54.939Z,0
2017-11-14T00:51:55.249Z,0
2017-11-14T00:52:55.258Z,0
2017-11-14T00:53:55.226Z,0
2017-11-14T00:54:55.238Z,0
2017-11-14T00:55:55.198Z,0
2017-11-14T00:56:55.177Z,0
2017-11-14T00:57:54.848Z,0
2017-11-14T00:58:55.396Z,0
2017-11-14T00:59:55.128Z,0
2017-11-14T01:00:55.149Z,0
2017-11-14T01:01:54.794Z,0
2017-11-14T01:02:55.117Z,0
2017-11-14T01:03:55.088Z,0
2017-11-14T01:04:55.059Z,0
2017-11-14T01:05:55.044Z,0
2017-11-14T01:06:54.387Z,0
2017-11-14T01:07:54.687Z,0
2017-11-14T01:08:55.003Z,0
2017-11-14T01:09:55.038Z,0
2017-11-14T01:10:54.972Z,0
2017-11-14T01:11:54.956Z,0
2017-11-14T01:12:54.945Z,0
2017-11-14T01:13:54.934Z,0
2017-11-14T01:14:54.915Z,0
2017-11-14T01:15:54.907Z,0
2017-11-14T01:16:54.889Z,0
2017-11-14T01:17:54.872Z,0
2017-11-14T01:18:54.861Z,0
2017-11-14T01:19:54.845Z,0
2017-11-14T01:20:54.844Z,0
2017-11-14T01:21:54.490Z,0
2017-11-14T01:22:54.808Z,0
2017-11-14T01:23:54.467Z,0
2017-11-14T01:24:54.774Z,0
2017-11-14T01:25:54.773Z,0
2017-11-14T01:26:54.745Z,0
2017-11-14T01:27:54.747Z,0
2017-11-14T01:28:54.724Z,0
2017-11-14T01:29:54.408Z,0
2017-11-14T01:30:54.694Z,0
2017-11-14T01:31:54.672Z,0
2017-11-14T01:32:54.680Z,0
2017-11-14T01:33:54.659Z,0
2017-11-14T01:34:54.637Z,0
2017-11-14T01:35:54.636Z,0
2017-11-14T01:36:54.604Z,0
2017-11-14T01:37:54.588Z,0
2017-11-14T01:38:54.569Z,0
2017-11-14T01:39:54.559Z,0
2017-11-14T01:40:54.547Z,0
2017-11-14T01:41:54.205Z,0
2017-11-14T01:42:54.524Z,0
2017-11-14T01:43:54.499Z,0
2017-11-14T01:44:54.509Z,0
2017-11-14T01:45:54.473Z,0
2017-11-14T01:46:54.459Z,0
2017-11-14T01:47:54.450Z,0
2017-11-14T01:48:54.454Z,0
2017-11-14T01:49:54.437Z,0
2017-11-14T01:50:54.433Z,0
2017-11-14T01:51:54.074Z,0
2017-11-14T01:52:54.390Z,0
2017-11-14T01:53:54.363Z,0
2017-11-14T01:54:54.356Z,0
2017-11-14T01:55:54.352Z,0
2017-11-14T01:56:54.330Z,0
2017-11-14T01:57:54.305Z,0
2017-11-14T01:58:54.301Z,0
2017-11-14T01:59:54.278Z,0
2017-11-14T02:00:54.266Z,0
2017-11-14T02:01:54.193Z,0
2017-11-14T02:02:54.233Z,0
2017-11-14T02:03:54.217Z,0
2017-11-14T02:04:54.203Z,0
2017-11-14T02:05:54.199Z,0
2017-11-14T02:06:54.189Z,0
2017-11-14T02:07:54.166Z,0
2017-11-14T02:08:54.147Z,0
2017-11-14T02:09:53.809Z,0
2017-11-14T02:10:54.128Z,0
2017-11-14T02:11:54.108Z,0
2017-11-14T02:12:54.108Z,0
2017-11-14T02:13:53.761Z,0
2017-11-14T02:14:54.072Z,0
2017-11-14T02:15:53.731Z,0
2017-11-14T02:16:54.041Z,0
2017-11-14T02:17:53.702Z,0
2017-11-14T02:18:54.014Z,0
2017-11-14T02:19:53.673Z,0
2017-11-14T02:20:53.990Z,0
2017-11-14T02:21:53.988Z,0
2017-11-14T02:22:53.953Z,0
2017-11-14T02:23:53.938Z,0
2017-11-14T02:24:53.645Z,0
2017-11-14T02:25:53.909Z,0
2017-11-14T02:26:53.915Z,0
2017-11-14T02:27:53.555Z,0
2017-11-14T02:28:53.876Z,0
2017-11-14T02:29:53.889Z,0
2017-11-14T02:30:53.845Z,0
2017-11-14T02:31:53.839Z,0
2017-11-14T02:32:54.094Z,0
2017-11-14T02:33:53.824Z,0
2017-11-14T02:34:53.783Z,0
2017-11-14T02:35:53.784Z,0
2017-11-14T02:36:53.768Z,0
2017-11-14T02:37:53.420Z,0
2017-11-14T02:38:53.755Z,0
2017-11-14T02:39:53.746Z,0
2017-11-14T02:40:53.730Z,0
2017-11-14T02:41:53.690Z,0
2017-11-14T02:42:53.674Z,0
2017-11-14T02:43:53.699Z,0
2017-11-14T02:44:53.664Z,0
2017-11-14T02:45:53.636Z,0
2017-11-14T02:46:53.298Z,0
2017-11-14T02:47:53.625Z,0
2017-11-14T02:48:53.591Z,0
2017-11-14T02:49:53.609Z,0
2017-11-14T02:50:53.600Z,0
2017-11-14T02:51:53.558Z,0
2017-11-14T02:52:53.537Z,0
2017-11-14T02:53:53.528Z,0
2017-11-14T02:54:53.516Z,0
2017-11-14T02:55:53.493Z,0
2017-11-14T02:56:53.485Z,0
2017-11-14T02:57:53.144Z,0
2017-11-14T02:58:53.451Z,0
2017-11-14T02:59:53.442Z,0
2017-11-14T03:00:53.432Z,0
2017-11-14T03:01:53.401Z,0
2017-11-14T03:02:53.392Z,0
2017-11-14T03:03:53.299Z,0
2017-11-14T03:04:53.366Z,0
2017-11-14T03:05:53.345Z,0
2017-11-14T03:06:53.015Z,0
2017-11-14T03:07:52.989Z,0
2017-11-14T03:08:53.317Z,0
2017-11-14T03:09:52.639Z,0
2017-11-14T03:10:53.271Z,0
2017-11-14T03:11:52.932Z,0
2017-11-14T03:12:53.249Z,0
2017-11-14T03:13:53.232Z,0
2017-11-14T03:14:53.214Z,0
2017-11-14T03:15:53.202Z,0
2017-11-14T03:16:52.857Z,0
2017-11-14T03:17:53.182Z,0
2017-11-14T03:18:53.163Z,0
2017-11-14T03:19:53.160Z,0
2017-11-14T03:20:52.815Z,0
2017-11-14T03:21:53.119Z,0
2017-11-14T03:22:52.772Z,0
2017-11-14T03:23:53.076Z,0
2017-11-14T03:24:53.077Z,0
2017-11-14T03:25:53.052Z,0
2017-11-14T03:26:53.063Z,0
2017-11-14T03:27:52.694Z,0
2017-11-14T03:28:53.007Z,0
2017-11-14T03:29:53.000Z,0
2017-11-14T03:30:52.994Z,0
2017-11-14T03:31:52.977Z,0
2017-11-14T03:32:52.969Z,0
2017-11-14T03:33:52.933Z,0
2017-11-14T03:34:53.186Z,0
2017-11-14T03:35:52.578Z,0
2017-11-14T03:36:52.566Z,0
2017-11-14T03:37:52.549Z,0
2017-11-14T03:38:52.543Z,0
2017-11-14T03:39:52.523Z,0
2017-11-14T03:40:52.830Z,0
2017-11-14T03:41:52.819Z,0
2017-11-14T03:42:52.802Z,0
2017-11-14T03:43:52.790Z,0
2017-11-14T03:44:52.450Z,0
2017-11-14T03:45:52.434Z,0
2017-11-14T03:46:52.740Z,0
2017-11-14T03:47:52.729Z,0
2017-11-14T03:48:52.709Z,0
2017-11-14T03:49:52.385Z,0
2017-11-14T03:50:52.682Z,0
2017-11-14T03:51:52.663Z,0
2017-11-14T03:52:52.329Z,0
2017-11-14T03:53:52.636Z,0
2017-11-14T03:54:52.616Z,0
2017-11-14T03:55:52.607Z,0
2017-11-14T03:56:52.588Z,0
2017-11-14T03:57:52.590Z,0
2017-11-14T03:58:52.565Z,0
2017-11-14T03:59:52.541Z,0
2017-11-14T04:00:52.560Z,0
2017-11-14T04:01:52.522Z,0
2017-11-14T04:02:52.516Z,0
2017-11-14T04:03:52.498Z,0
2017-11-14T04:04:52.470Z,0
2017-11-14T04:05:52.727Z,0
2017-11-14T04:06:52.109Z,0
2017-11-14T04:07:52.448Z,0
2017-11-14T04:08:52.417Z,0
2017-11-14T04:09:52.397Z,0
2017-11-14T04:10:52.387Z,0
2017-11-14T04:11:52.365Z,0
2017-11-14T04:12:52.353Z,0
2017-11-14T04:13:52.337Z,0
2017-11-14T04:14:52.327Z,0
2017-11-14T04:15:52.297Z,0
2017-11-14T04:16:52.289Z,0
2017-11-14T04:17:52.276Z,0
2017-11-14T04:18:52.297Z,0
2017-11-14T04:19:52.235Z,0
2017-11-14T04:20:52.247Z,0
2017-11-14T04:21:52.230Z,0
2017-11-14T04:22:51.895Z,0
2017-11-14T04:23:51.866Z,0
2017-11-14T04:24:52.158Z,0
2017-11-14T04:25:52.156Z,0
2017-11-14T04:26:52.139Z,0
2017-11-14T04:27:52.139Z,0
2017-11-14T04:28:52.102Z,0
2017-11-14T04:29:52.084Z,0
2017-11-14T04:30:52.077Z,0
2017-11-14T04:31:52.061Z,0
2017-11-14T04:32:52.067Z,0
2017-11-14T04:33:52.031Z,0
2017-11-14T04:34:52.016Z,0
2017-11-14T04:35:52.004Z,0
2017-11-14T04:36:51.661Z,0
2017-11-14T04:37:51.985Z,0
2017-11-14T04:38:51.958Z,0
2017-11-14T04:39:51.939Z,0
2017-11-14T04:40:51.599Z,0
2017-11-14T04:41:51.907Z,0
2017-11-14T04:42:51.901Z,0
2017-11-14T04:43:51.889Z,0
2017-11-14T04:44:51.873Z,0
2017-11-14T04:45:51.848Z,0
2017-11-14T04:46:51.839Z,0
2017-11-14T04:47:51.833Z,0
2017-11-14T04:48:51.812Z,0
2017-11-14T04:49:51.791Z,0
2017-11-14T04:50:51.792Z,0
2017-11-14T04:51:51.444Z,0
2017-11-14T04:52:51.761Z,0
2017-11-14T04:53:51.405Z,0
2017-11-14T04:54:51.718Z,0
2017-11-14T04:55:51.703Z,0
2017-11-14T04:56:51.363Z,0
2017-11-14T04:57:51.670Z,0
2017-11-14T04:58:51.673Z,0
2017-11-14T04:59:51.660Z,0
2017-11-14T05:00:51.630Z,0
2017-11-14T05:01:51.634Z,0
2017-11-14T05:02:51.631Z,0
2017-11-14T05:03:51.590Z,0
2017-11-14T05:04:51.580Z,0
2017-11-14T05:05:51.570Z,0
2017-11-14T05:06:51.542Z,20
2017-11-14T05:07:51.532Z,36
2017-11-14T05:08:51.767Z,36
2017-11-14T05:09:51.513Z,40
2017-11-14T05:10:51.157Z,40
2017-11-14T05:11:51.464Z,40
2017-11-14T05:12:51.453Z,40
2017-11-14T05:13:51.448Z,40
2017-11-14T05:14:51.422Z,40
2017-11-14T05:15:51.405Z,44
2017-11-14T05:16:51.061Z,44
2017-11-14T05:17:51.381Z,44
2017-11-14T05:18:51.360Z,40
2017-11-14T05:19:51.347Z,44
2017-11-14T05:20:51.342Z,44
2017-11-14T05:21:51.323Z,0
2017-11-14T05:22:51.306Z,0
2017-11-14T05:23:51.286Z,0
2017-11-14T05:24:51.275Z,0
2017-11-14T05:25:51.300Z,0
2017-11-14T05:26:50.918Z,0
2017-11-14T05:27:51.288Z,0
2017-11-14T05:28:51.206Z,0
2017-11-14T05:29:51.198Z,0
2017-11-14T05:30:51.178Z,0
2017-11-14T05:31:51.175Z,0
2017-11-14T05:32:50.832Z,0
2017-11-14T05:33:50.804Z,0
2017-11-14T05:34:51.120Z,0
2017-11-14T05:35:51.105Z,0
2017-11-14T05:36:50.770Z,0
2017-11-14T05:37:50.749Z,0
2017-11-14T05:38:51.065Z,0
2017-11-14T05:39:50.969Z,0
2017-11-14T05:40:51.026Z,0
2017-11-14T05:41:50.679Z,0
2017-11-14T05:42:50.995Z,0
2017-11-14T05:43:50.989Z,0
2017-11-14T05:44:50.650Z,0
2017-11-14T05:45:50.949Z,0
2017-11-14T05:46:50.932Z,0
2017-11-14T05:47:50.937Z,0
2017-11-14T05:48:50.900Z,4
2017-11-14T05:49:50.885Z,4
2017-11-14T05:50:50.548Z,4
2017-11-14T05:51:50.856Z,0
2017-11-14T05:52:50.845Z,4
2017-11-14T05:53:50.836Z,8
2017-11-14T05:54:50.820Z,4
2017-11-14T05:55:50.822Z,4
2017-11-14T05:56:50.780Z,8
2017-11-14T05:57:50.777Z,8
2017-11-14T05:58:50.764Z,12
2017-11-14T05:59:50.741Z,12
2017-11-14T06:00:50.718Z,16
2017-11-14T06:01:50.389Z,16
2017-11-14T06:02:50.688Z,20
2017-11-14T06:03:50.670Z,24
2017-11-14T06:04:50.660Z,28
2017-11-14T06:05:50.647Z,32
2017-11-14T06:06:50.637Z,40
2017-11-14T06:07:50.619Z,48
2017-11-14T06:08:50.603Z,56
2017-11-14T06:09:50.584Z,68
2017-11-14T06:10:50.833Z,72
2017-11-14T06:11:50.555Z,88
2017-11-14T06:12:50.542Z,100
2017-11-14T06:13:50.525Z,112
2017-11-14T06:14:50.518Z,124
2017-11-14T06:15:50.511Z,140
2017-11-14T06:16:50.480Z,160
2017-11-14T06:17:50.473Z,176
2017-11-14T06:18:50.454Z,188
2017-11-14T06:19:50.434Z,208
2017-11-14T06:20:50.428Z,224
2017-11-14T06:21:50.426Z,252
2017-11-14T06:22:50.400Z,268
2017-11-14T06:23:50.372Z,280
2017-11-14T06:24:50.053Z,300
2017-11-14T06:25:50.344Z,324
2017-11-14T06:26:50.334Z,344
2017-11-14T06:27:50.324Z,368
2017-11-14T06:28:50.309Z,384
2017-11-14T06:29:49.956Z,400
2017-11-14T06:30:50.270Z,408
2017-11-14T06:31:50.252Z,428
2017-11-14T06:32:50.233Z,440
2017-11-14T06:33:49.894Z,468
2017-11-14T06:34:50.215Z,500
2017-11-14T06:35:50.193Z,528
2017-11-14T06:36:50.174Z,552
2017-11-14T06:37:49.835Z,592
2017-11-14T06:38:50.147Z,612
2017-11-14T06:39:50.133Z,632
2017-11-14T06:40:50.136Z,664
2017-11-14T06:41:50.358Z,676
2017-11-14T06:42:50.089Z,684
2017-11-14T06:43:49.745Z,708
2017-11-14T06:44:50.061Z,736
2017-11-14T06:45:50.052Z,764
2017-11-14T06:46:49.716Z,764
2017-11-14T06:47:50.014Z,788
2017-11-14T06:48:49.999Z,824
2017-11-14T06:49:50.009Z,832
2017-11-14T06:50:50.005Z,864
2017-11-14T06:51:49.629Z,864
2017-11-14T06:52:49.619Z,908
2017-11-14T06:53:49.932Z,948
2017-11-14T06:54:49.917Z,976
2017-11-14T06:55:49.897Z,992
2017-11-14T06:56:49.889Z,1028
2017-11-14T06:57:49.883Z,1068
2017-11-14T06:58:49.206Z,1120
2017-11-14T06:59:49.523Z,1184
2017-11-14T07:00:49.501Z,1224
2017-11-14T07:01:49.824Z,1196
2017-11-14T07:02:49.485Z,1236
2017-11-14T07:03:49.780Z,1288
2017-11-14T07:04:49.779Z,1340
2017-11-14T07:05:49.434Z,1340
2017-11-14T07:06:49.745Z,1408
2017-11-14T07:07:49.730Z,1496
2017-11-14T07:08:49.388Z,1504
2017-11-14T07:09:49.695Z,1580
2017-11-14T07:10:49.712Z,1632
2017-11-14T07:11:49.665Z,1688
2017-11-14T07:12:49.611Z,1772
2017-11-14T07:13:49.641Z,1792
2017-11-14T07:14:49.629Z,1780
2017-11-14T07:15:49.282Z,1840
2017-11-14T07:16:49.295Z,1820
2017-11-14T07:17:49.487Z,1824
2017-11-14T07:18:49.245Z,1868
2017-11-14T07:19:49.242Z,1860
2017-11-14T07:20:49.544Z,1880
2017-11-14T07:21:49.562Z,1912
2017-11-14T07:22:49.518Z,1904
2017-11-14T07:23:49.523Z,1968
2017-11-14T07:24:49.181Z,1988
2017-11-14T07:25:49.470Z,2060
2017-11-14T07:26:49.479Z,2016
2017-11-14T07:27:49.453Z,2020
2017-11-14T07:28:49.441Z,2016
2017-11-14T07:29:49.101Z,2056
2017-11-14T07:30:49.410Z,2164
2017-11-14T07:31:49.410Z,2196
2017-11-14T07:32:49.394Z,2452
2017-11-14T07:33:49.058Z,2492
2017-11-14T07:34:49.024Z,2348
2017-11-14T07:35:49.337Z,2428
2017-11-14T07:36:49.008Z,2532
2017-11-14T07:37:49.308Z,2516
2017-11-14T07:38:49.326Z,2556
2017-11-14T07:39:49.287Z,2696
2017-11-14T07:40:49.289Z,2764
2017-11-14T07:41:48.931Z,2992
2017-11-14T07:42:49.239Z,2868
2017-11-14T07:43:49.232Z,2872
2017-11-14T07:44:48.890Z,3068
2017-11-14T07:45:49.245Z,3116
2017-11-14T07:46:49.196Z,3044
2017-11-14T07:47:49.192Z,2996
2017-11-14T07:48:49.166Z,3260
2017-11-14T07:49:48.837Z,3588
2017-11-14T07:50:49.165Z,3276
2017-11-14T07:51:49.157Z,3356
2017-11-14T07:52:48.826Z,3580
2017-11-14T07:53:49.096Z,3468
2017-11-14T07:54:49.110Z,3372
2017-11-14T07:55:49.075Z,3828
2017-11-14T07:56:49.082Z,4128
2017-11-14T07:57:49.058Z,3968
2017-11-14T07:58:49.312Z,3980
2017-11-14T07:59:49.032Z,4028
2017-11-14T08:00:49.044Z,3788
2017-11-14T08:01:48.711Z,4656
2017-11-14T08:02:49.045Z,4824
2017-11-14T08:03:48.319Z,4516
2017-11-14T08:04:48.975Z,3960
2017-11-14T08:05:48.951Z,3516
2017-11-14T08:06:48.619Z,2992
2017-11-14T08:07:48.966Z,3176
2017-11-14T08:08:48.945Z,3524
2017-11-14T08:09:48.936Z,3416
2017-11-14T08:10:48.948Z,3260
2017-11-14T08:11:48.906Z,3912
2017-11-14T08:12:48.868Z,4068
2017-11-14T08:13:48.849Z,5096
2017-11-14T08:14:48.539Z,4492
2017-11-14T08:15:49.090Z,4560
2017-11-14T08:16:48.851Z,3472
2017-11-14T08:17:48.842Z,3704
2017-11-14T08:18:48.813Z,3936
2017-11-14T08:19:47.881Z,4212
2017-11-14T08:20:48.568Z,4652
2017-11-14T08:21:48.838Z,3700
2017-11-14T08:22:48.853Z,3492
2017-11-14T08:23:48.728Z,4192
2017-11-14T08:24:48.715Z,4796
2017-11-14T08:25:48.408Z,5064
2017-11-14T08:26:48.725Z,4960
2017-11-14T08:27:48.726Z,4332
2017-11-14T08:28:48.371Z,4616
2017-11-14T08:29:48.672Z,4844
2017-11-14T08:30:48.651Z,5048
2017-11-14T08:31:48.655Z,5760
2017-11-14T08:32:48.616Z,4288
2017-11-14T08:33:48.664Z,4388
2017-11-14T08:34:48.291Z,4752
2017-11-14T08:35:48.608Z,5600
2017-11-14T08:36:48.591Z,6088
2017-11-14T08:37:48.588Z,6464
2017-11-14T08:38:48.590Z,6592
2017-11-14T08:39:48.532Z,5984
2017-11-14T08:40:48.521Z,5976
2017-11-14T08:41:48.516Z,5408
2017-11-14T08:42:48.183Z,4704
2017-11-14T08:43:48.538Z,4760
2017-11-14T08:44:48.487Z,5052
2017-11-14T08:45:48.486Z,4692
2017-11-14T08:46:48.741Z,4476
2017-11-14T08:47:48.469Z,4924
2017-11-14T08:48:48.461Z,4476
2017-11-14T08:49:48.470Z,4436
2017-11-14T08:50:48.523Z,4900
2017-11-14T08:51:48.430Z,4820
2017-11-14T08:52:48.503Z,6728
2017-11-14T08:53:48.381Z,8112
2017-11-14T08:54:48.385Z,7972
2017-11-14T08:55:48.481Z,6292
2017-11-14T08:56:48.445Z,7056
2017-11-14T08:57:48.451Z,6288
2017-11-14T08:58:48.362Z,5500
2017-11-14T08:59:48.320Z,5028
2017-11-14T09:00:48.357Z,4712
2017-11-14T09:01:48.285Z,5076
2017-11-14T09:02:48.309Z,5640
2017-11-14T09:03:48.289Z,5428
2017-11-14T09:04:48.356Z,6324
2017-11-14T09:05:48.250Z,6788
2017-11-14T09:06:48.254Z,5496
2017-11-14T09:07:48.214Z,5276
2017-11-14T09:08:48.264Z,5772
2017-11-14T09:09:48.421Z,6228
2017-11-14T09:10:48.571Z,5952
2017-11-14T09:11:48.316Z,5908
2017-11-14T09:12:48.002Z,6372
2017-11-14T09:13:48.219Z,7320
2017-11-14T09:14:47.828Z,6844
2017-11-14T09:15:48.164Z,6404
2017-11-14T09:16:48.173Z,5756
2017-11-14T09:17:48.366Z,6040
2017-11-14T09:18:48.352Z,8984
2017-11-14T09:19:48.149Z,10488
2017-11-14T09:20:48.178Z,9316
2017-11-14T09:21:47.778Z,6660
2017-11-14T09:22:48.078Z,4492
2017-11-14T09:23:47.738Z,3956
2017-11-14T09:24:48.094Z,6012
2017-11-14T09:25:48.013Z,8600
2017-11-14T09:26:48.047Z,7608
2017-11-14T09:27:47.425Z,8236
2017-11-14T09:28:47.666Z,7768
2017-11-14T09:29:47.684Z,7764
2017-11-14T09:30:47.970Z,8420
2017-11-14T09:31:47.943Z,7892
2017-11-14T09:32:47.999Z,6760
2017-11-14T09:33:47.943Z,6620
2017-11-14T09:34:47.951Z,9676
2017-11-14T09:35:47.593Z,11364
2017-11-14T09:36:47.910Z,8288
2017-11-14T09:37:47.933Z,6428
2017-11-14T09:38:47.898Z,8420
2017-11-14T09:39:48.153Z,6788
2017-11-14T09:40:47.847Z,5984
2017-11-14T09:41:47.553Z,5252
2017-11-14T09:42:47.896Z,4948
2017-11-14T09:43:47.487Z,4948
2017-11-14T09:44:47.838Z,6140
2017-11-14T09:45:48.631Z,7316
2017-11-14T09:46:47.829Z,8960
2017-11-14T09:47:47.864Z,9936
2017-11-14T09:48:48.385Z,9176
2017-11-14T09:49:47.805Z,7536
2017-11-14T09:50:47.782Z,6772
2017-11-14T09:51:47.777Z,6168
2017-11-14T09:52:47.842Z,8608
2017-11-14T09:53:47.760Z,9416
2017-11-14T09:54:47.708Z,8512
2017-11-14T09:55:47.742Z,6364
2017-11-14T09:56:47.868Z,5816
2017-11-14T09:57:47.416Z,6256
2017-11-14T09:58:47.692Z,6844
2017-11-14T09:59:47.655Z,6880
2017-11-14T10:00:47.719Z,6576
2017-11-14T10:01:47.692Z,5736
2017-11-14T10:02:47.636Z,6544
2017-11-14T10:03:47.609Z,10128
2017-11-14T10:04:47.324Z,7988
2017-11-14T10:05:47.844Z,7032
2017-11-14T10:06:47.599Z,7372
2017-11-14T10:07:47.631Z,7164
2017-11-14T10:08:47.633Z,6492
2017-11-14T10:09:47.568Z,6656
2017-11-14T10:10:47.627Z,7716
2017-11-14T10:11:47.592Z,7444
2017-11-14T10:12:47.549Z,6416
2017-11-14T10:13:47.512Z,6216
2017-11-14T10:14:47.261Z,7280
2017-11-14T10:15:47.521Z,8048
2017-11-14T10:16:47.511Z,7808
2017-11-14T10:17:47.488Z,7780
2017-11-14T10:18:47.499Z,9176
2017-11-14T10:19:47.800Z,8748
2017-11-14T10:20:47.451Z,7960
2017-11-14T10:21:47.172Z,8308
2017-11-14T10:22:47.185Z,7592
2017-11-14T10:23:47.164Z,6316
2017-11-14T10:24:47.085Z,5984
2017-11-14T10:25:47.129Z,6740
2017-11-14T10:26:47.166Z,6348
2017-11-14T10:27:47.400Z,7156
2017-11-14T10:28:47.375Z,8216
2017-11-14T10:29:47.514Z,9008
2017-11-14T10:30:47.946Z,8280
2017-11-14T10:31:47.386Z,7752
2017-11-14T10:32:47.523Z,7396
2017-11-14T10:33:47.020Z,8812
2017-11-14T10:34:46.998Z,12052
2017-11-14T10:35:47.289Z,12728
2017-11-14T10:36:47.293Z,10880
2017-11-14T10:37:47.537Z,8976
2017-11-14T10:38:47.039Z,9440
2017-11-14T10:39:47.011Z,7932
2017-11-14T10:40:47.499Z,7640
2017-11-14T10:41:46.926Z,7892
2017-11-14T10:42:46.968Z,9148
2017-11-14T10:43:47.213Z,10080
2017-11-14T10:44:47.226Z,7804
2017-11-14T10:45:47.198Z,8340
2017-11-14T10:46:47.209Z,9068
2017-11-14T10:47:47.257Z,8480
2017-11-14T10:48:46.829Z,7392
2017-11-14T10:49:47.215Z,7048
2017-11-14T10:50:47.153Z,6444
2017-11-14T10:51:47.210Z,7400
2017-11-14T10:52:47.137Z,6592
2017-11-14T10:53:47.112Z,7956
2017-11-14T10:54:47.159Z,8152
2017-11-14T10:55:47.112Z,8184
2017-11-14T10:56:47.502Z,9364
2017-11-14T10:57:47.210Z,7996
2017-11-14T10:58:47.094Z,7620
2017-11-14T10:59:47.295Z,7856
2017-11-14T11:00:47.163Z,7412
2017-11-14T11:01:47.121Z,6740
2017-11-14T11:02:47.091Z,6432
2017-11-14T11:03:47.213Z,7628
2017-11-14T11:04:47.032Z,6644
2017-11-14T11:05:47.087Z,6388
2017-11-14T11:06:47.016Z,7076
2017-11-14T11:07:47.012Z,7512
2017-11-14T11:08:47.033Z,6776
2017-11-14T11:09:47.025Z,6636
2017-11-14T11:10:47.036Z,6776
2017-11-14T11:11:47.074Z,6812
2017-11-14T11:12:47.027Z,6472
2017-11-14T11:13:47.042Z,7280
2017-11-14T11:14:46.674Z,7256
2017-11-14T11:15:46.308Z,7524
2017-11-14T11:16:47.417Z,7076
2017-11-14T11:17:47.063Z,6564
2017-11-14T11:18:46.975Z,6100
2017-11-14T11:19:46.649Z,6384
2017-11-14T11:20:46.235Z,6464
2017-11-14T11:21:46.962Z,6728
2017-11-14T11:22:46.892Z,6532
2017-11-14T11:23:46.897Z,6112
2017-11-14T11:24:46.845Z,5940
2017-11-14T11:25:46.510Z,6036
2017-11-14T11:26:46.481Z,6780
2017-11-14T11:27:46.787Z,6972
2017-11-14T11:28:46.882Z,6788
2017-11-14T11:29:46.831Z,6956
2017-11-14T11:30:46.469Z,7172
2017-11-14T11:31:46.810Z,7576
2017-11-14T11:32:46.774Z,7736
2017-11-14T11:33:46.757Z,7492
2017-11-14T11:34:46.778Z,7276
2017-11-14T11:35:46.727Z,7768
2017-11-14T11:36:46.770Z,7168
2017-11-14T11:37:46.748Z,7232
2017-11-14T11:38:46.699Z,7040
2017-11-14T11:39:46.736Z,7832
2017-11-14T11:40:46.685Z,8536
2017-11-14T11:41:46.335Z,8072
2017-11-14T11:42:47.029Z,7712
2017-11-14T11:43:46.898Z,7484
2017-11-14T11:44:46.683Z,7656
2017-11-14T11:45:46.644Z,8136
2017-11-14T11:46:46.615Z,8108
2017-11-14T11:47:46.623Z,7680
2017-11-14T11:48:46.756Z,7484
2017-11-14T11:49:46.583Z,7528
2017-11-14T11:50:46.579Z,8256
2017-11-14T11:51:46.282Z,8444
2017-11-14T11:52:46.580Z,8064
2017-11-14T11:53:46.811Z,7328
2017-11-14T11:54:46.562Z,7496
2017-11-14T11:55:46.246Z,7776
2017-11-14T11:56:46.285Z,7724
2017-11-14T11:57:46.547Z,7964
2017-11-14T11:58:46.693Z,7712
2017-11-14T11:59:46.504Z,7892
2017-11-14T12:00:46.465Z,7876
2017-11-14T12:01:46.528Z,7548
2017-11-14T12:02:46.475Z,7364
2017-11-14T12:03:46.579Z,7940
2017-11-14T12:04:46.476Z,7640
2017-11-14T12:05:46.459Z,8208
2017-11-14T12:06:46.470Z,8072
2017-11-14T12:07:46.414Z,7852
2017-11-14T12:08:46.670Z,7748
2017-11-14T12:09:46.413Z,7720
2017-11-14T12:10:46.524Z,7652
2017-11-14T12:11:46.680Z,7456
2017-11-14T12:12:46.435Z,7220
2017-11-14T12:13:46.368Z,7088
2017-11-14T12:14:46.383Z,7340
2017-11-14T12:15:46.382Z,7200
2017-11-14T12:16:46.037Z,6896
2017-11-14T12:17:46.015Z,6664
2017-11-14T12:18:46.312Z,6356
2017-11-14T12:19:46.313Z,6240
2017-11-14T12:20:46.362Z,6132
2017-11-14T12:21:46.407Z,6428
2017-11-14T12:22:46.295Z,6680
2017-11-14T12:23:46.355Z,6848
2017-11-14T12:24:46.275Z,6756
2017-11-14T12:25:46.287Z,6992
2017-11-14T12:26:45.945Z,6984
2017-11-14T12:27:46.304Z,7152
2017-11-14T12:28:46.305Z,7124
2017-11-14T12:29:46.234Z,7076
2017-11-14T12:30:46.248Z,7016
2017-11-14T12:31:46.274Z,6660
2017-11-14T12:32:46.229Z,6768
2017-11-14T12:33:46.219Z,6668
2017-11-14T12:34:46.212Z,6428
2017-11-14T12:35:46.214Z,6020
2017-11-14T12:36:46.151Z,5868
2017-11-14T12:37:46.365Z,5672
2017-11-14T12:38:45.814Z,5728
2017-11-14T12:39:46.130Z,5800
2017-11-14T12:40:46.121Z,5576
2017-11-14T12:41:45.780Z,5836
2017-11-14T12:42:46.107Z,6012
2017-11-14T12:43:46.112Z,6056
2017-11-14T12:44:46.079Z,5996
2017-11-14T12:45:46.090Z,6164
2017-11-14T12:46:45.409Z,6012
2017-11-14T12:47:45.751Z,6116
2017-11-14T12:48:46.623Z,5728
2017-11-14T12:49:45.717Z,5636
2017-11-14T12:50:46.048Z,5556
2017-11-14T12:51:46.017Z,5484
2017-11-14T12:52:46.043Z,5592
2017-11-14T12:53:45.997Z,5516
2017-11-14T12:54:45.663Z,5556
2017-11-14T12:55:46.007Z,5668
2017-11-14T12:56:45.998Z,5736
2017-11-14T12:57:45.544Z,5784
2017-11-14T12:58:45.843Z,5864
2017-11-14T12:59:45.867Z,5948
2017-11-14T13:00:45.791Z,6056
2017-11-14T13:01:45.768Z,6152
2017-11-14T13:02:45.761Z,6144
2017-11-14T13:03:45.760Z,6044
2017-11-14T13:04:45.761Z,5840
2017-11-14T13:05:45.478Z,5632
2017-11-14T13:06:45.789Z,5448
2017-11-14T13:07:45.744Z,5304
2017-11-14T13:08:46.212Z,5288
2017-11-14T13:09:45.716Z,5340
2017-11-14T13:10:45.229Z,5328
2017-11-14T13:11:45.749Z,5324
2017-11-14T13:12:45.663Z,5228
2017-11-14T13:13:45.688Z,5248
2017-11-14T13:14:45.663Z,5128
2017-11-14T13:15:45.615Z,4940
2017-11-14T13:16:45.604Z,4856
2017-11-14T13:17:45.636Z,4788
2017-11-14T13:18:45.587Z,4732
2017-11-14T13:19:45.313Z,4676
2017-11-14T13:20:45.309Z,4656
2017-11-14T13:21:45.307Z,4684
2017-11-14T13:22:45.558Z,4688
2017-11-14T13:23:45.027Z,4732
2017-11-14T13:24:45.548Z,4852
2017-11-14T13:25:45.542Z,4992
2017-11-14T13:26:45.522Z,5112
2017-11-14T13:27:45.253Z,5148
2017-11-14T13:28:45.485Z,5100
2017-11-14T13:29:45.493Z,5020
2017-11-14T13:30:45.510Z,4932
2017-11-14T13:31:45.467Z,4848
2017-11-14T13:32:45.456Z,4816
2017-11-14T13:33:45.456Z,4692
2017-11-14T13:34:45.459Z,4536
2017-11-14T13:35:45.499Z,4372
2017-11-14T13:36:45.439Z,4252
2017-11-14T13:37:45.446Z,4160
2017-11-14T13:38:45.424Z,4100
2017-11-14T13:39:45.435Z,4052
2017-11-14T13:40:45.402Z,4012
2017-11-14T13:41:45.401Z,3944
2017-11-14T13:42:45.400Z,3872
2017-11-14T13:43:45.410Z,3828
2017-11-14T13:44:45.393Z,3876
2017-11-14T13:45:45.353Z,3976
2017-11-14T13:46:45.357Z,4096
2017-11-14T13:47:45.333Z,4220
2017-11-14T13:48:45.358Z,4276
2017-11-14T13:49:45.395Z,4304
2017-11-14T13:50:45.398Z,4308
2017-11-14T13:51:45.362Z,4216
2017-11-14T13:52:45.286Z,4044
2017-11-14T13:53:45.288Z,3848
2017-11-14T13:54:45.284Z,3656
2017-11-14T13:55:45.274Z,3488